Time;durP1;ratioP1;P1;durP2;ratioP2;P2;SDS_P1;SDS_P2;PMS_P1;PMS_P2;Temp;Humidity;BMP_temperature;BMP_pressure;BME280_temperature;BME280_humidity;BME280_pressure;Samples;Min_cycle;Max_cycle;Signal;HPM_P1;HPM_P2
2021/12/22 00:00:49;;;;;;;17.23;5.10;;;10.30;99.90;;;;;;5033164;28;20032;-73
2021/12/22 00:03:15;;;;;;;8.47;4.97;;;10.30;99.90;;;;;;5033121;28;20061;-73
2021/12/22 00:05:46;;;;;;;9.93;5.87;;;10.20;99.90;;;;;;5032881;28;20056;-73
2021/12/22 00:08:14;;;;;;;13.23;5.40;;;10.30;99.90;;;;;;5032566;28;20021;-73
2021/12/22 00:10:44;;;;;;;8.30;4.57;;;10.20;99.90;;;;;;5032471;28;20485;-72
2021/12/22 00:13:10;;;;;;;9.00;4.88;;;10.20;99.90;;;;;;5032810;28;20032;-74
2021/12/22 00:15:37;;;;;;;9.13;5.25;;;10.20;99.90;;;;;;5032560;28;20022;-74
2021/12/22 00:18:04;;;;;;;8.75;4.78;;;10.20;99.90;;;;;;5032491;28;20030;-73
2021/12/22 00:20:32;;;;;;;7.82;4.45;;;10.20;99.90;;;;;;5041177;28;20040;-72
2021/12/22 00:22:58;;;;;;;7.00;4.40;;;10.20;99.90;;;;;;5052263;28;20056;-72
2021/12/22 00:25:26;;;;;;;8.20;4.60;;;10.10;99.90;;;;;;5034263;28;20032;-72
2021/12/22 00:27:53;;;;;;;8.55;4.47;;;10.20;99.90;;;;;;5035215;28;20025;-72
2021/12/22 00:30:20;;;;;;;8.32;4.78;;;10.20;99.90;;;;;;5014310;28;20029;-72
2021/12/22 00:32:51;;;;;;;10.63;4.75;;;10.30;99.90;;;;;;5014417;28;20072;-72
2021/12/22 00:35:24;;;;;;;9.75;5.00;;;10.30;99.90;;;;;;5032149;28;20034;-73
2021/12/22 00:37:50;;;;;;;8.82;5.45;;;10.20;99.90;;;;;;5032088;28;20366;-72
2021/12/22 00:40:17;;;;;;;8.32;5.53;;;10.20;99.90;;;;;;4998577;28;20377;-72
2021/12/22 00:42:43;;;;;;;6.93;4.40;;;10.10;99.90;;;;;;4997874;28;20072;-73
2021/12/22 00:45:10;;;;;;;9.27;5.78;;;10.10;99.90;;;;;;5032503;28;20454;-73
2021/12/22 00:47:38;;;;;;;11.80;5.88;;;9.90;99.90;;;;;;5020262;28;20029;-73
2021/12/22 00:50:05;;;;;;;10.98;5.65;;;9.90;99.90;;;;;;5051763;28;20082;-73
2021/12/22 00:52:32;;;;;;;13.27;5.38;;;9.80;99.90;;;;;;5033938;28;20044;-73
2021/12/22 00:54:58;;;;;;;10.00;5.40;;;9.80;99.90;;;;;;5017616;28;20480;-74
2021/12/22 00:57:27;;;;;;;11.45;5.80;;;9.80;99.90;;;;;;5050540;28;20412;-73
2021/12/22 00:59:53;;;;;;;14.23;5.28;;;9.80;99.90;;;;;;5034154;28;20376;-73
2021/12/22 01:02:20;;;;;;;8.90;5.30;;;9.80;99.90;;;;;;5051871;28;20090;-72
2021/12/22 01:04:47;;;;;;;8.25;4.82;;;9.90;99.90;;;;;;5034045;28;20079;-73
2021/12/22 01:07:13;;;;;;;10.10;5.75;;;9.90;99.90;;;;;;5017847;28;20517;-73
2021/12/22 01:09:40;;;;;;;11.82;4.93;;;9.90;99.90;;;;;;5051786;28;20074;-73
2021/12/22 01:12:07;;;;;;;8.57;4.82;;;9.80;99.90;;;;;;5051830;28;20035;-73
2021/12/22 01:14:33;;;;;;;;;;;9.80;99.90;;;;;;5052607;28;20096;-73
2021/12/22 01:17:02;;;;;;;8.48;4.68;;;9.80;99.90;;;;;;5033626;28;19904;-73
2021/12/22 01:19:45;;;;;;;9.40;5.43;;;9.80;99.90;;;;;;5051584;28;20025;-73
2021/12/22 01:25:00;;;;;;;8.15;4.03;;;9.80;99.90;;;;;;5031658;28;20051;-72
2021/12/22 01:27:33;;;;;;;9.43;4.82;;;9.70;99.90;;;;;;5031676;28;20030;-73
2021/12/22 01:30:02;;;;;;;8.27;4.50;;;9.70;99.90;;;;;;5031466;28;20040;-72
2021/12/22 01:32:28;;;;;;;10.30;5.63;;;9.50;99.90;;;;;;5030127;28;20105;-72
2021/12/22 01:34:54;;;;;;;7.47;4.83;;;9.60;99.90;;;;;;5032030;28;20053;-73
2021/12/22 01:37:20;;;;;;;12.30;4.90;;;9.50;99.90;;;;;;5031589;28;20026;-73
2021/12/22 01:39:46;;;;;;;11.05;4.80;;;9.50;99.90;;;;;;5031891;28;20021;-74
2021/12/22 01:42:12;;;;;;;9.17;5.13;;;9.50;99.90;;;;;;5030424;28;20029;-73
2021/12/22 01:45:01;;;;;;;9.07;5.00;;;9.50;99.90;;;;;;5030123;28;20378;-73
2021/12/22 01:50:18;;;;;;;9.23;4.47;;;9.50;99.90;;;;;;5031386;28;20037;-73
2021/12/22 01:52:44;;;;;;;11.63;4.85;;;9.50;99.90;;;;;;5031454;28;20022;-73
2021/12/22 01:55:25;;;;;;;8.33;5.10;;;9.60;99.90;;;;;;5034558;28;20036;-72
2021/12/22 01:57:52;;;;;;;9.85;5.18;;;9.50;99.90;;;;;;5034933;28;20026;-73
2021/12/22 02:00:21;;;;;;;11.98;5.05;;;9.60;99.90;;;;;;5035461;28;20055;-72
2021/12/22 02:02:47;;;;;;;10.73;5.63;;;9.50;99.90;;;;;;5035150;28;20033;-73
2021/12/22 02:05:13;;;;;;;8.37;4.93;;;9.50;99.90;;;;;;5035015;28;20489;-73
2021/12/22 02:07:39;;;;;;;10.05;5.57;;;9.50;99.90;;;;;;5034872;28;20347;-74
2021/12/22 02:10:51;;;;;;;7.10;4.97;;;9.50;99.90;;;;;;5035265;28;20036;-74
2021/12/22 02:12:54;;;;;;;9.38;4.82;;;9.50;99.90;;;;;;5030754;28;20046;-74
2021/12/22 02:15:20;;;;;;;10.70;4.60;;;9.50;99.90;;;;;;5034710;28;20099;-74
2021/12/22 02:17:48;;;;;;;15.05;5.10;;;9.50;99.90;;;;;;5034790;28;20033;-74
2021/12/22 02:20:15;;;;;;;7.93;4.53;;;9.60;99.90;;;;;;5040737;28;20045;-74
2021/12/22 02:22:44;;;;;;;8.13;4.30;;;9.50;99.90;;;;;;5019761;28;20044;-74
2021/12/22 02:25:17;;;;;;;10.73;4.40;;;9.50;99.90;;;;;;5016772;28;20021;-74
2021/12/22 02:27:52;;;;;;;8.48;4.97;;;9.50;99.90;;;;;;5034594;28;20191;-74
2021/12/22 02:30:25;;;;;;;9.38;4.05;;;9.50;99.90;;;;;;5016667;28;20113;-74
2021/12/22 02:35:28;;;;;;;10.25;4.40;;;9.50;99.90;;;;;;5034342;28;20565;-73
2021/12/22 02:37:56;;;;;;;8.60;4.50;;;9.60;99.90;;;;;;5034792;28;20362;-74
2021/12/22 02:40:27;;;;;;;7.80;4.50;;;9.60;99.90;;;;;;5034287;28;20025;-74
2021/12/22 02:43:04;;;;;;;13.40;4.13;;;9.60;99.90;;;;;;5034544;28;20029;-74
2021/12/22 02:45:31;;;;;;;9.45;4.05;;;9.60;99.90;;;;;;5034657;28;20028;-74
2021/12/22 02:48:01;;;;;;;7.03;3.90;;;9.70;99.90;;;;;;5016619;28;20481;-73
2021/12/22 02:50:28;;;;;;;9.73;3.58;;;9.70;99.90;;;;;;5034342;28;20496;-74
2021/12/22 02:55:29;;;;;;;7.75;4.22;;;9.70;99.90;;;;;;5034132;28;20036;-74
2021/12/22 02:58:01;;;;;;;11.18;3.80;;;9.80;99.90;;;;;;5034399;28;20462;-74
2021/12/22 03:01:22;;;;;;;9.88;4.32;;;9.80;99.90;;;;;;5017417;28;20037;-73
2021/12/22 03:06:01;;;;;;;9.75;4.82;;;9.60;99.90;;;;;;5033760;28;20090;-73
2021/12/22 03:08:27;;;;;;;8.82;4.85;;;9.60;99.90;;;;;;5033514;28;20112;-73
2021/12/22 03:10:55;;;;;;;13.93;5.68;;;9.60;99.90;;;;;;5033869;28;20041;-73
2021/12/22 03:13:25;;;;;;;11.35;5.07;;;9.50;99.90;;;;;;5033448;28;20029;-73
2021/12/22 03:15:51;;;;;;;14.75;5.47;;;9.40;99.90;;;;;;5033417;28;20175;-72
2021/12/22 03:18:18;;;;;;;9.20;5.55;;;9.40;99.90;;;;;;5033479;28;20029;-72
2021/12/22 03:20:50;;;;;;;9.27;5.00;;;9.40;99.90;;;;;;5015389;28;20053;-73
2021/12/22 03:23:16;;;;;;;10.20;5.47;;;9.40;99.90;;;;;;5033541;28;20022;-72
2021/12/22 03:25:42;;;;;;;9.43;5.00;;;9.40;99.90;;;;;;5033690;28;20022;-73
2021/12/22 03:28:08;;;;;;;9.18;4.82;;;9.40;99.90;;;;;;5033322;28;20529;-73
2021/12/22 03:30:34;;;;;;;9.23;4.87;;;9.40;99.90;;;;;;5033591;28;20481;-73
2021/12/22 03:33:00;;;;;;;14.75;5.40;;;9.40;99.90;;;;;;5033591;28;20032;-73
2021/12/22 03:35:26;;;;;;;12.57;5.33;;;9.40;99.90;;;;;;5033380;28;20025;-73
2021/12/22 03:37:59;;;;;;;11.00;5.03;;;9.40;99.90;;;;;;5033147;28;20165;-73
2021/12/22 03:40:27;;;;;;;9.02;5.43;;;9.40;99.90;;;;;;5033722;28;20032;-73
2021/12/22 03:42:53;;;;;;;8.02;4.93;;;9.40;99.90;;;;;;5033008;28;20104;-73
2021/12/22 03:45:19;;;;;;;9.00;5.20;;;9.40;99.90;;;;;;5032413;28;20104;-73
2021/12/22 03:47:46;;;;;;;16.08;5.85;;;9.30;99.90;;;;;;5015637;28;20099;-73
2021/12/22 03:50:14;;;;;;;9.48;5.50;;;9.30;99.90;;;;;;5033058;28;20366;-73
2021/12/22 03:52:41;;;;;;;11.65;4.97;;;9.30;99.90;;;;;;5015021;28;20464;-73
2021/12/22 03:55:09;;;;;;;8.52;4.50;;;9.20;99.90;;;;;;5032889;28;20063;-73
2021/12/22 03:57:35;;;;;;;9.98;5.70;;;9.20;99.90;;;;;;5033334;28;20100;-73
2021/12/22 04:00:04;;;;;;;11.82;6.45;;;9.20;99.90;;;;;;5032722;28;20025;-74
2021/12/22 04:02:30;;;;;;;8.43;5.40;;;9.20;99.90;;;;;;5014939;28;20052;-73
2021/12/22 04:04:57;;;;;;;6.65;4.75;;;9.20;99.90;;;;;;5032735;28;20095;-73
2021/12/22 04:07:23;;;;;;;8.47;5.57;;;9.10;99.90;;;;;;5032553;28;20036;-73
2021/12/22 04:09:50;;;;;;;8.77;5.22;;;9.10;99.90;;;;;;5032847;28;20386;-73
2021/12/22 04:12:16;;;;;;;10.23;5.80;;;9.00;99.90;;;;;;5032579;28;20057;-75
2021/12/22 04:14:42;;;;;;;10.60;5.60;;;9.00;99.90;;;;;;5032476;28;20025;-73
2021/12/22 04:17:08;;;;;;;10.30;5.78;;;9.00;99.90;;;;;;5032436;28;20053;-73
2021/12/22 04:19:34;;;;;;;10.13;5.95;;;9.00;99.90;;;;;;5031000;28;20025;-73
2021/12/22 04:22:02;;;;;;;9.70;5.32;;;9.00;99.90;;;;;;5032735;28;20041;-73
2021/12/22 04:24:29;;;;;;;8.88;4.85;;;9.00;99.90;;;;;;5014658;28;20083;-73
2021/12/22 04:26:56;;;;;;;;;;;9.00;99.90;;;;;;5033332;28;20026;-73
2021/12/22 04:29:23;;;;;;;9.85;5.55;;;8.90;99.90;;;;;;5032266;28;20342;-73
2021/12/22 04:31:49;;;;;;;8.70;5.18;;;8.90;99.90;;;;;;5032690;28;20038;-73
2021/12/22 04:34:15;;;;;;;8.70;4.95;;;9.00;99.90;;;;;;5032895;28;20029;-73
2021/12/22 04:36:43;;;;;;;9.65;5.53;;;8.90;99.90;;;;;;5032262;28;20025;-74
2021/12/22 04:39:11;;;;;;;9.30;4.75;;;8.90;99.90;;;;;;5032557;28;20035;-72
2021/12/22 04:41:38;;;;;;;12.20;5.25;;;9.00;99.90;;;;;;5030604;28;20335;-74
2021/12/22 04:44:04;;;;;;;;;;;9.00;99.90;;;;;;5032610;28;20017;-73
2021/12/22 04:46:31;;;;;;;6.70;4.03;;;9.00;99.90;;;;;;5032128;28;19905;-73
2021/12/22 04:48:57;;;;;;;10.13;5.28;;;9.00;99.90;;;;;;5031978;28;20477;-74
2021/12/22 04:51:27;;;;;;;10.05;4.60;;;9.00;99.90;;;;;;5032322;28;20033;-73
2021/12/22 04:54:16;;;;;;;9.90;6.20;;;9.10;99.90;;;;;;5032387;28;20053;-73
2021/12/22 04:56:42;;;;;;;9.02;5.25;;;9.10;99.90;;;;;;5031789;28;20381;-73
2021/12/22 04:59:09;;;;;;;11.67;4.93;;;9.10;99.90;;;;;;5031882;28;20030;-73
2021/12/22 05:01:35;;;;;;;9.77;5.13;;;9.10;99.90;;;;;;5032057;28;20275;-74
2021/12/22 05:04:02;;;;;;;10.70;5.53;;;9.20;99.90;;;;;;5014454;28;20362;-73
2021/12/22 05:06:28;;;;;;;8.97;4.97;;;9.20;99.90;;;;;;5032195;28;20795;-74
2021/12/22 05:08:55;;;;;;;8.33;4.83;;;9.20;99.90;;;;;;5031591;28;20029;-73
2021/12/22 05:11:21;;;;;;;7.78;4.95;;;9.20;99.90;;;;;;5032301;28;20037;-73
2021/12/22 05:13:47;;;;;;;7.32;4.65;;;9.30;99.90;;;;;;5031995;28;20098;-73
2021/12/22 05:16:19;;;;;;;10.95;4.18;;;9.40;99.90;;;;;;5031928;28;20057;-73
2021/12/22 05:19:10;;;;;;;7.55;4.53;;;9.40;99.90;;;;;;5031841;28;20481;-73
2021/12/22 05:21:37;;;;;;;7.68;4.75;;;9.40;99.90;;;;;;5031533;28;20132;-73
2021/12/22 05:24:04;;;;;;;9.60;4.82;;;9.40;99.90;;;;;;5031846;28;20104;-73
2021/12/22 05:26:31;;;;;;;10.40;5.57;;;9.40;99.90;;;;;;5031837;28;20030;-73
2021/12/22 05:28:57;;;;;;;8.98;5.32;;;9.40;99.90;;;;;;5015432;28;20081;-73
2021/12/22 05:31:24;;;;;;;11.60;5.43;;;9.40;99.90;;;;;;5035903;28;20120;-73
2021/12/22 05:33:51;;;;;;;10.02;5.53;;;9.30;99.90;;;;;;5035942;28;20072;-74
2021/12/22 05:36:17;;;;;;;7.72;4.97;;;9.30;99.90;;;;;;5034073;28;20065;-74
2021/12/22 05:38:43;;;;;;;8.33;5.77;;;9.30;99.90;;;;;;5035094;28;20030;-73
2021/12/22 05:41:11;;;;;;;13.47;6.07;;;9.20;99.90;;;;;;5032022;28;20022;-74
2021/12/22 05:43:37;;;;;;;9.48;4.43;;;9.20;99.90;;;;;;5025635;28;20357;-74
2021/12/22 05:46:04;;;;;;;11.07;5.47;;;9.10;99.90;;;;;;5028830;28;20025;-72
2021/12/22 05:48:30;;;;;;;10.95;5.20;;;9.00;99.90;;;;;;5027283;28;20121;-73
2021/12/22 05:50:58;;;;;;;13.17;6.00;;;9.00;99.90;;;;;;5015750;28;20037;-73
2021/12/22 05:53:28;;;;;;;11.15;5.68;;;8.90;99.90;;;;;;5015037;28;20029;-73
2021/12/22 05:55:56;;;;;;;14.82;5.43;;;8.90;99.90;;;;;;5015562;28;20065;-70
2021/12/22 05:58:23;;;;;;;7.72;5.00;;;9.00;99.90;;;;;;5015407;28;20018;-73
2021/12/22 06:00:49;;;;;;;;;;;8.90;99.90;;;;;;5015865;28;20026;-73
2021/12/22 06:03:16;;;;;;;9.70;5.22;;;8.90;99.90;;;;;;5015088;28;19913;-73
2021/12/22 06:05:42;;;;;;;12.35;5.50;;;8.90;99.90;;;;;;5015098;28;20121;-71
2021/12/22 06:08:09;;;;;;;11.85;5.53;;;8.90;99.90;;;;;;5015376;28;20075;-71
2021/12/22 06:10:36;;;;;;;10.80;5.68;;;8.90;99.90;;;;;;5015241;28;20041;-73
2021/12/22 06:13:05;;;;;;;11.93;5.50;;;9.00;99.90;;;;;;5017612;28;20034;-69
2021/12/22 06:15:32;;;;;;;10.80;5.10;;;9.00;99.90;;;;;;5007882;28;20029;-71
2021/12/22 06:18:00;;;;;;;7.82;4.93;;;9.10;99.90;;;;;;5013457;28;20034;-70
2021/12/22 06:20:27;;;;;;;12.15;4.75;;;9.10;99.90;;;;;;5014560;28;20445;-72
2021/12/22 06:22:54;;;;;;;8.45;4.65;;;9.10;99.90;;;;;;5014757;28;20026;-72
2021/12/22 06:25:21;;;;;;;8.93;4.95;;;9.20;99.90;;;;;;5014866;28;20101;-71
2021/12/22 06:27:47;;;;;;;10.48;5.38;;;9.20;99.90;;;;;;5022006;28;20030;-72
2021/12/22 06:30:13;;;;;;;9.27;4.83;;;9.20;99.90;;;;;;5034035;28;20067;-72
2021/12/22 06:32:39;;;;;;;8.90;5.35;;;9.30;99.90;;;;;;5033968;28;20406;-72
2021/12/22 06:35:07;;;;;;;8.73;4.88;;;9.30;99.90;;;;;;5033707;28;20033;-73
2021/12/22 06:37:34;;;;;;;7.50;4.38;;;9.50;99.90;;;;;;5033889;28;20025;-72
2021/12/22 06:40:00;;;;;;;13.43;4.75;;;9.80;99.90;;;;;;5033553;28;20365;-72
2021/12/22 06:42:26;;;;;;;11.27;5.17;;;10.20;99.90;;;;;;5033706;28;20074;-72
2021/12/22 06:44:52;;;;;;;8.43;4.30;;;10.60;99.90;;;;;;5016156;28;20077;-68
2021/12/22 06:47:18;;;;;;;7.65;4.18;;;11.00;99.90;;;;;;5033041;28;20283;-72
2021/12/22 06:49:46;;;;;;;8.13;4.10;;;11.30;99.90;;;;;;5032793;28;20040;-72
2021/12/22 06:52:11;;;;;;;;;;;11.50;99.90;;;;;;5033278;28;20296;-73
2021/12/22 06:54:37;;;;;;;7.40;3.88;;;11.80;99.90;;;;;;5032703;28;20263;-73
2021/12/22 06:57:04;;;;;;;6.72;3.65;;;11.90;99.90;;;;;;5014779;28;20550;-73
2021/12/22 06:59:31;;;;;;;10.65;4.82;;;11.70;99.90;;;;;;5032704;28;20025;-72
2021/12/22 07:01:57;;;;;;;11.55;4.82;;;11.50;99.90;;;;;;5032630;28;20030;-73
2021/12/22 07:04:24;;;;;;;13.50;5.87;;;11.50;99.90;;;;;;5015669;28;20029;-73
2021/12/22 07:06:50;;;;;;;12.30;7.68;;;11.50;99.90;;;;;;5032919;28;20457;-72
2021/12/22 07:09:17;;;;;;;10.80;6.43;;;11.60;99.90;;;;;;5032798;28;20053;-73
2021/12/22 07:11:43;;;;;;;11.07;6.00;;;11.60;99.90;;;;;;5014935;28;20033;-71
2021/12/22 07:14:09;;;;;;;13.75;6.03;;;11.60;99.90;;;;;;5032869;28;20031;-72
2021/12/22 07:16:38;;;;;;;14.93;6.15;;;11.50;99.90;;;;;;5033215;28;20106;-74
2021/12/22 07:19:04;;;;;;;15.43;7.72;;;11.40;99.90;;;;;;5031649;28;20060;-71
2021/12/22 07:21:31;;;;;;;14.60;6.60;;;11.40;99.90;;;;;;5032485;28;20095;-73
2021/12/22 07:23:57;;;;;;;13.45;6.72;;;11.40;99.90;;;;;;5032801;28;20115;-72
2021/12/22 07:26:23;;;;;;;19.10;6.15;;;11.30;99.90;;;;;;5014581;28;20021;-71
2021/12/22 07:28:49;;;;;;;16.13;6.87;;;11.10;99.90;;;;;;5032810;28;20405;-70
2021/12/22 07:31:18;;;;;;;12.52;6.75;;;10.90;99.90;;;;;;5018131;28;20034;-80
2021/12/22 07:34:01;;;;;;;14.25;6.95;;;10.80;99.90;;;;;;5013631;28;20037;-72
2021/12/22 07:36:27;;;;;;;11.73;6.75;;;10.70;99.90;;;;;;5017867;28;20482;-73
2021/12/22 07:39:01;;;;;;;11.90;5.70;;;10.60;99.90;;;;;;5040770;28;20075;-72
2021/12/22 07:41:28;;;;;;;11.52;5.80;;;10.50;99.90;;;;;;5033362;28;20084;-75
2021/12/22 07:43:54;;;;;;;;;;;10.40;99.90;;;;;;5015435;28;20405;-70
2021/12/22 07:46:20;;;;;;;15.38;6.47;;;10.40;99.90;;;;;;5032606;28;19951;-71
2021/12/22 07:48:46;;;;;;;10.87;6.63;;;10.50;99.90;;;;;;5033019;28;20040;-72
2021/12/22 07:51:14;;;;;;;11.23;6.07;;;10.60;99.90;;;;;;5032577;28;20039;-70
2021/12/22 07:53:40;;;;;;;11.25;5.80;;;10.70;99.90;;;;;;5032859;28;20024;-71
2021/12/22 07:56:06;;;;;;;7.78;4.00;;;10.70;99.90;;;;;;5033031;28;20033;-69
2021/12/22 07:58:33;;;;;;;9.55;5.88;;;10.80;99.90;;;;;;5032189;28;20409;-72
2021/12/22 08:00:59;;;;;;;10.57;5.80;;;10.70;99.90;;;;;;5032331;28;20110;-70
2021/12/22 08:03:26;;;;;;;13.07;6.82;;;10.70;99.90;;;;;;5032086;28;20512;-69
2021/12/22 08:05:53;;;;;;;10.45;6.22;;;10.70;99.90;;;;;;5026652;28;20029;-70
2021/12/22 08:08:20;;;;;;;13.85;7.20;;;10.70;99.90;;;;;;5030146;28;20037;-71
2021/12/22 08:10:46;;;;;;;;;;;10.70;99.90;;;;;;5033034;28;20044;-71
2021/12/22 08:13:13;;;;;;;16.65;7.68;;;10.70;99.90;;;;;;5030606;28;20007;-73
2021/12/22 08:15:40;;;;;;;11.60;6.97;;;10.80;99.90;;;;;;5032212;28;20037;-70
2021/12/22 08:18:06;;;;;;;7.95;5.22;;;10.80;99.90;;;;;;5031836;28;20482;-71
2021/12/22 08:20:32;;;;;;;13.80;7.13;;;10.70;99.90;;;;;;5038297;28;20056;-69
2021/12/22 08:22:58;;;;;;;15.57;7.67;;;10.70;99.90;;;;;;5052638;28;20044;-70
2021/12/22 08:25:24;;;;;;;12.52;6.95;;;10.70;99.90;;;;;;5051959;28;20465;-70
2021/12/22 08:27:51;;;;;;;10.70;6.20;;;10.80;99.90;;;;;;5052129;28;20031;-70
2021/12/22 08:30:18;;;;;;;15.40;8.05;;;10.90;99.90;;;;;;5033740;28;20801;-70
2021/12/22 08:32:45;;;;;;;15.55;7.65;;;10.90;99.90;;;;;;5050261;28;20068;-70
2021/12/22 08:35:13;;;;;;;15.02;7.38;;;11.00;99.90;;;;;;5051538;28;20028;-69
2021/12/22 08:40:25;;;;;;;11.00;5.95;;;11.10;99.90;;;;;;5032233;28;20037;-70
2021/12/22 08:42:52;;;;;;;9.88;5.68;;;11.10;99.90;;;;;;5031664;28;20025;-69
2021/12/22 08:45:18;;;;;;;10.02;5.60;;;11.20;99.90;;;;;;4995499;28;20514;-71
2021/12/22 08:47:45;;;;;;;9.48;5.15;;;11.30;99.90;;;;;;5011860;28;20120;-69
2021/12/22 08:50:11;;;;;;;;;;;11.30;99.90;;;;;;4994388;28;20029;-70
2021/12/22 08:52:40;;;;;;;10.35;5.32;;;11.30;99.90;;;;;;5012145;28;19995;-69
2021/12/22 08:55:08;;;;;;;13.23;6.50;;;11.30;99.90;;;;;;5011657;28;20044;-70
2021/12/22 08:57:34;;;;;;;;;;;11.30;99.90;;;;;;5011935;28;20426;-69
2021/12/22 09:00:05;;;;;;;10.60;5.53;;;11.40;99.90;;;;;;5011693;28;19985;-71
2021/12/22 09:02:31;;;;;;;13.40;7.05;;;11.40;99.90;;;;;;5011957;28;20030;-72
2021/12/22 09:04:58;;;;;;;17.57;6.60;;;11.50;99.90;;;;;;5015843;28;20101;-72
2021/12/22 09:07:24;;;;;;;10.05;5.93;;;11.60;99.90;;;;;;5014406;28;20036;-72
2021/12/22 09:09:50;;;;;;;12.10;5.93;;;11.70;99.90;;;;;;5015895;28;20100;-70
2021/12/22 09:12:16;;;;;;;12.10;6.53;;;11.80;99.90;;;;;;5016272;28;20140;-70
2021/12/22 09:14:42;;;;;;;15.10;7.17;;;11.90;99.90;;;;;;5015634;28;20029;-70
2021/12/22 09:17:08;;;;;;;14.70;6.47;;;12.30;99.90;;;;;;5015565;28;20351;-72
2021/12/22 09:19:34;;;;;;;11.02;6.18;;;12.30;99.90;;;;;;4997831;28;20033;-72
2021/12/22 09:22:00;;;;;;;18.77;7.93;;;12.40;99.90;;;;;;5015291;28;20052;-71
2021/12/22 09:24:27;;;;;;;13.03;5.93;;;12.40;99.90;;;;;;5015484;28;20026;-72
2021/12/22 09:26:54;;;;;;;15.00;6.38;;;12.40;99.90;;;;;;5015995;28;20017;-72
2021/12/22 09:29:20;;;;;;;12.43;6.37;;;12.50;99.90;;;;;;5015397;28;20068;-71
2021/12/22 09:31:46;;;;;;;13.70;6.10;;;12.60;99.90;;;;;;5022089;28;20299;-71
2021/12/22 09:34:12;;;;;;;11.30;5.70;;;12.60;99.90;;;;;;5054677;28;20036;-72
2021/12/22 09:36:40;;;;;;;10.23;5.82;;;12.70;99.90;;;;;;5052665;28;20485;-72
2021/12/22 09:39:06;;;;;;;11.40;5.65;;;12.70;99.90;;;;;;5037593;28;20029;-74
2021/12/22 09:41:33;;;;;;;;;;;12.70;99.90;;;;;;5055145;28;20082;-72
2021/12/22 09:43:59;;;;;;;12.73;5.53;;;12.90;99.90;;;;;;5036687;28;20047;-72
2021/12/22 09:46:26;;;;;;;10.05;5.55;;;13.00;99.90;;;;;;5054978;28;20033;-71
2021/12/22 09:49:00;;;;;;;10.77;5.68;;;13.10;99.90;;;;;;5054270;28;20104;-70
2021/12/22 09:53:55;;;;;;;11.82;5.93;;;13.10;99.90;;;;;;5039606;28;20071;-71
2021/12/22 09:56:29;;;;;;;12.93;5.90;;;13.10;99.90;;;;;;5029738;28;20040;-71
2021/12/22 09:58:55;;;;;;;12.90;5.78;;;13.20;99.90;;;;;;5017409;28;20381;-73
2021/12/22 10:01:25;;;;;;;9.93;5.22;;;13.30;99.90;;;;;;5034622;28;20484;-69
2021/12/22 10:03:53;;;;;;;10.88;5.13;;;13.30;99.90;;;;;;5034381;28;20154;-70
2021/12/22 10:06:20;;;;;;;8.98;4.28;;;13.30;99.90;;;;;;5033871;28;20044;-69
2021/12/22 10:08:55;;;;;;;9.40;5.05;;;13.40;99.90;;;;;;5033116;28;20458;-70
2021/12/22 10:11:22;;;;;;;10.38;5.13;;;13.50;99.90;;;;;;5033695;28;20358;-70
2021/12/22 10:13:48;;;;;;;173.90;23.50;;;13.50;99.90;;;;;;5034453;28;20021;-69
2021/12/22 10:16:25;;;;;;;23.42;5.75;;;13.60;99.90;;;;;;5033997;28;20381;-71
2021/12/22 10:19:10;;;;;;;12.98;4.60;;;13.60;99.90;;;;;;5034834;28;20045;-72
2021/12/22 10:21:52;;;;;;;13.70;5.72;;;13.90;99.90;;;;;;5034099;28;20052;-72
2021/12/22 10:24:21;;;;;;;9.98;5.68;;;14.00;99.90;;;;;;5034678;28;20088;-65
2021/12/22 10:26:47;;;;;;;10.30;5.43;;;14.10;99.90;;;;;;5034446;28;20017;-71
2021/12/22 10:29:13;;;;;;;10.80;4.20;;;14.00;99.90;;;;;;5034269;28;20026;-70
2021/12/22 10:31:42;;;;;;;9.90;4.53;;;14.10;99.90;;;;;;5034186;28;20128;-70
2021/12/22 10:34:14;;;;;;;9.57;4.50;;;14.10;99.90;;;;;;5034607;28;20268;-79
2021/12/22 10:36:53;;;;;;;21.23;5.65;;;14.10;99.90;;;;;;5033981;28;20025;-77
2021/12/22 10:39:29;;;;;;;7.85;4.10;;;14.20;99.90;;;;;;5034125;28;20036;-76
2021/12/22 10:42:04;;;;;;;10.18;3.60;;;14.40;99.90;;;;;;5016375;28;20037;-78
2021/12/22 10:44:45;;;;;;;9.48;3.92;;;14.50;99.90;;;;;;5034138;28;20029;-77
2021/12/22 10:47:33;;;;;;;6.90;3.80;;;14.60;99.90;;;;;;5034037;28;20430;-78
2021/12/22 10:50:03;;;;;;;6.10;2.83;;;14.60;99.90;;;;;;5015975;28;20030;-76
2021/12/22 10:52:30;;;;;;;7.10;3.20;;;14.70;99.90;;;;;;5033456;28;20041;-76
2021/12/22 10:55:14;;;;;;;8.77;3.65;;;14.90;99.90;;;;;;5033012;28;20025;-78
2021/12/22 10:57:44;;;;;;;7.85;3.22;;;14.80;99.90;;;;;;5032881;28;20315;-78
2021/12/22 11:00:26;;;;;;;10.65;3.55;;;14.90;99.90;;;;;;5031678;28;20066;-76
2021/12/22 11:03:08;;;;;;;9.55;5.45;;;15.10;99.90;;;;;;5031699;28;20052;-76
2021/12/22 11:05:49;;;;;;;11.52;3.72;;;15.10;99.90;;;;;;5032063;28;20030;-78
2021/12/22 11:08:27;;;;;;;12.57;3.83;;;15.10;99.90;;;;;;5031889;28;20021;-77
2021/12/22 11:10:54;;;;;;;6.63;3.22;;;15.10;99.90;;;;;;5013781;28;20059;-77
2021/12/22 11:13:23;;;;;;;7.00;3.75;;;14.90;99.90;;;;;;5032203;28;20045;-76
2021/12/22 11:15:50;;;;;;;8.50;3.70;;;14.90;99.90;;;;;;5032003;28;20085;-77
2021/12/22 11:18:36;;;;;;;8.00;3.88;;;15.00;99.90;;;;;;5032448;28;20354;-76
2021/12/22 11:21:30;;;;;;;23.15;5.30;;;15.00;99.90;;;;;;5032341;28;20047;-76
2021/12/22 11:23:57;;;;;;;159.75;20.88;;;15.10;99.90;;;;;;5032953;28;20080;-77
2021/12/22 11:26:32;;;;;;;15.52;5.47;;;15.10;99.90;;;;;;5014955;28;20098;-77
2021/12/22 11:29:01;;;;;;;15.57;6.07;;;15.50;99.90;;;;;;5032778;28;20032;-77
2021/12/22 11:31:27;;;;;;;12.57;5.53;;;15.50;99.90;;;;;;5032099;28;20120;-76
2021/12/22 11:33:55;;;;;;;12.57;6.45;;;15.40;99.90;;;;;;5032150;28;20107;-76
2021/12/22 11:36:22;;;;;;;14.13;7.07;;;15.20;99.90;;;;;;5032322;28;20039;-76
2021/12/22 11:38:49;;;;;;;11.88;5.47;;;15.20;99.90;;;;;;5032492;28;20032;-77
2021/12/22 11:41:19;;;;;;;10.88;5.00;;;15.00;99.90;;;;;;5031939;28;20076;-78
2021/12/22 11:43:48;;;;;;;10.48;5.57;;;15.00;99.90;;;;;;5031979;28;20349;-76
2021/12/22 11:46:15;;;;;;;12.93;4.95;;;15.20;99.90;;;;;;5031915;28;20037;-76
2021/12/22 11:48:42;;;;;;;7.53;3.97;;;15.30;99.90;;;;;;5031959;28;20469;-76
2021/12/22 11:51:29;;;;;;;9.85;3.60;;;15.30;99.90;;;;;;5031513;28;20125;-76
2021/12/22 11:53:57;;;;;;;3.80;1.30;;;15.40;99.90;;;;;;5031749;28;20025;-77
2021/12/22 11:56:54;;;;;;;5.70;1.92;;;15.60;99.30;;;;;;5013974;28;20026;-77
2021/12/22 11:59:29;;;;;;;6.18;1.35;;;15.90;98.50;;;;;;4932656;29;20043;-76
2021/12/22 12:02:19;;;;;;;5.90;1.30;;;15.80;98.00;;;;;;4932545;29;20362;-77
2021/12/22 12:04:51;;;;;;;3.67;1.58;;;15.50;98.00;;;;;;4932671;29;20031;-77
2021/12/22 12:07:55;;;;;;;3.42;1.48;;;15.20;99.10;;;;;;4932251;29;20083;-77
2021/12/22 12:10:41;;;;;;;6.03;2.08;;;15.00;99.50;;;;;;4932286;29;20397;-77
2021/12/22 12:13:26;;;;;;;11.20;3.08;;;14.60;99.90;;;;;;4932203;29;20181;-75
2021/12/22 12:22:18;;;;;;;4.07;1.75;;;15.30;99.90;;;;;;4931953;29;20055;-78
2021/12/22 12:24:56;;;;;;;6.22;1.70;;;15.30;99.10;;;;;;4932155;29;20110;-76
2021/12/22 12:27:43;;;;;;;5.25;1.60;;;15.50;98.50;;;;;;4932725;29;20137;-77
2021/12/22 12:30:20;;;;;;;6.07;1.58;;;15.30;98.10;;;;;;4932365;29;20047;-77
2021/12/22 12:32:46;;;;;;;;;;;15.00;98.60;;;;;;4932648;29;20341;-77
2021/12/22 12:35:23;;;;;;;7.50;1.83;;;14.70;99.10;;;;;;4959943;28;19912;-77
2021/12/22 12:38:15;;;;;;;7.20;1.83;;;14.60;99.70;;;;;;5031586;28;20255;-78
2021/12/22 12:41:10;;;;;;;5.30;1.67;;;14.50;99.90;;;;;;5031366;28;20153;-77
2021/12/22 12:43:43;;;;;;;3.65;1.73;;;14.50;99.10;;;;;;5031926;28;20026;-79
2021/12/22 12:46:34;;;;;;;7.45;1.83;;;14.60;99.30;;;;;;5032176;28;20177;-74
2021/12/22 12:49:04;;;;;;;5.32;2.38;;;14.30;99.30;;;;;;5031557;28;20094;-78
2021/12/22 12:51:37;;;;;;;5.55;2.50;;;14.40;99.50;;;;;;5031142;28;20482;-78
2021/12/22 12:54:25;;;;;;;7.47;2.70;;;14.40;99.70;;;;;;5031529;28;20029;-78
2021/12/22 12:56:55;;;;;;;16.90;3.67;;;14.50;99.40;;;;;;5031454;28;20033;-78
2021/12/22 12:59:51;;;;;;;6.75;2.80;;;14.60;99.50;;;;;;5031087;28;20037;-79
2021/12/22 13:02:26;;;;;;;9.27;2.70;;;14.70;99.50;;;;;;5031629;28;20117;-74
2021/12/22 13:04:58;;;;;;;8.50;2.92;;;14.70;99.40;;;;;;5031334;28;20033;-76
2021/12/22 13:07:25;;;;;;;10.30;3.03;;;14.80;99.10;;;;;;5031620;28;20522;-78
2021/12/22 13:10:02;;;;;;;8.68;2.88;;;14.90;99.60;;;;;;5031363;28;20097;-77
2021/12/22 13:18:21;;;;;;;10.27;4.18;;;15.30;99.90;;;;;;5031868;28;20032;-77
2021/12/22 13:20:49;;;;;;;11.13;3.70;;;15.40;99.90;;;;;;5031330;28;20125;-78
2021/12/22 13:23:18;;;;;;;28.70;4.95;;;15.50;99.90;;;;;;5031328;28;20065;-77
2021/12/22 13:25:50;;;;;;;15.73;4.10;;;15.50;99.90;;;;;;5013614;28;20045;-77
2021/12/22 13:28:25;;;;;;;10.40;3.20;;;15.60;99.90;;;;;;5031747;28;20078;-77
2021/12/22 13:30:55;;;;;;;11.02;3.08;;;15.50;99.90;;;;;;5031261;28;20104;-77